sensor_id;sensor_type;location;lat;lon;timestamp;temperature;humidity
5881;DHT22;2966;52.598;10.928;2022-08-21T00:01:16;15.80;99.90
5881;DHT22;2966;52.598;10.928;2022-08-21T00:03:44;15.70;99.90
5881;DHT22;2966;52.598;10.928;2022-08-21T00:06:11;15.60;99.90
5881;DHT22;2966;52.598;10.928;2022-08-21T00:08:38;15.50;99.90
5881;DHT22;2966;52.598;10.928;2022-08-21T00:11:05;15.40;99.90
5881;DHT22;2966;52.598;10.928;2022-08-21T00:13:32;15.30;99.90
5881;DHT22;2966;52.598;10.928;2022-08-21T00:15:59;15.20;99.90
5881;DHT22;2966;52.598;10.928;2022-08-21T00:18:28;15.20;99.90
5881;DHT22;2966;52.598;10.928;2022-08-21T00:20:54;15.20;99.90
5881;DHT22;2966;52.598;10.928;2022-08-21T00:23:21;15.10;99.90
5881;DHT22;2966;52.598;10.928;2022-08-21T00:25:48;15.10;99.90
5881;DHT22;2966;52.598;10.928;2022-08-21T00:28:14;15.10;99.90
5881;DHT22;2966;52.598;10.928;2022-08-21T00:30:42;15.10;99.90
5881;DHT22;2966;52.598;10.928;2022-08-21T00:33:09;15.10;99.90
5881;DHT22;2966;52.598;10.928;2022-08-21T00:35:40;15.00;99.90
5881;DHT22;2966;52.598;10.928;2022-08-21T00:38:08;15.00;99.90
5881;DHT22;2966;52.598;10.928;2022-08-21T00:40:37;14.90;99.90
5881;DHT22;2966;52.598;10.928;2022-08-21T00:43:07;14.80;99.90
5881;DHT22;2966;52.598;10.928;2022-08-21T00:45:35;14.80;99.90
5881;DHT22;2966;52.598;10.928;2022-08-21T00:48:03;14.80;99.90
5881;DHT22;2966;52.598;10.928;2022-08-21T00:50:33;14.80;99.90
5881;DHT22;2966;52.598;10.928;2022-08-21T00:53:02;14.70;99.90
5881;DHT22;2966;52.598;10.928;2022-08-21T00:55:29;14.70;99.90
5881;DHT22;2966;52.598;10.928;2022-08-21T00:57:58;14.70;99.90
5881;DHT22;2966;52.598;10.928;2022-08-21T01:00:28;14.60;99.90
5881;DHT22;2966;52.598;10.928;2022-08-21T01:02:55;14.60;99.90
5881;DHT22;2966;52.598;10.928;2022-08-21T01:05:22;14.50;99.90
5881;DHT22;2966;52.598;10.928;2022-08-21T01:07:49;14.50;99.90
5881;DHT22;2966;52.598;10.928;2022-08-21T01:10:17;14.40;99.90
5881;DHT22;2966;52.598;10.928;2022-08-21T01:12:45;14.40;99.90
5881;DHT22;2966;52.598;10.928;2022-08-21T01:15:14;14.40;99.90
5881;DHT22;2966;52.598;10.928;2022-08-21T01:17:41;14.40;99.90
5881;DHT22;2966;52.598;10.928;2022-08-21T01:20:10;14.30;99.90
5881;DHT22;2966;52.598;10.928;2022-08-21T01:22:39;14.40;99.90
5881;DHT22;2966;52.598;10.928;2022-08-21T01:25:07;14.30;99.90
5881;DHT22;2966;52.598;10.928;2022-08-21T01:27:34;14.30;99.90
5881;DHT22;2966;52.598;10.928;2022-08-21T01:30:08;14.20;99.90
5881;DHT22;2966;52.598;10.928;2022-08-21T01:32:35;14.20;99.90
5881;DHT22;2966;52.598;10.928;2022-08-21T01:35:02;14.20;99.90
5881;DHT22;2966;52.598;10.928;2022-08-21T01:37:30;14.20;99.90
5881;DHT22;2966;52.598;10.928;2022-08-21T01:39:58;14.00;99.90
5881;DHT22;2966;52.598;10.928;2022-08-21T01:42:25;14.00;99.90
5881;DHT22;2966;52.598;10.928;2022-08-21T01:44:51;14.00;99.90
5881;DHT22;2966;52.598;10.928;2022-08-21T01:47:18;13.90;99.90
5881;DHT22;2966;52.598;10.928;2022-08-21T01:49:45;13.90;99.90
5881;DHT22;2966;52.598;10.928;2022-08-21T01:52:14;13.80;99.90
5881;DHT22;2966;52.598;10.928;2022-08-21T01:54:41;13.70;99.90
5881;DHT22;2966;52.598;10.928;2022-08-21T01:57:10;13.70;99.90
5881;DHT22;2966;52.598;10.928;2022-08-21T01:59:38;13.60;99.90
5881;DHT22;2966;52.598;10.928;2022-08-21T02:02:05;13.60;99.90
5881;DHT22;2966;52.598;10.928;2022-08-21T02:04:32;13.50;99.90
5881;DHT22;2966;52.598;10.928;2022-08-21T02:07:00;13.50;99.90
5881;DHT22;2966;52.598;10.928;2022-08-21T02:09:27;13.50;99.90
5881;DHT22;2966;52.598;10.928;2022-08-21T02:11:55;13.40;99.90
5881;DHT22;2966;52.598;10.928;2022-08-21T02:14:23;13.40;99.90
5881;DHT22;2966;52.598;10.928;2022-08-21T02:16:50;13.30;99.90
5881;DHT22;2966;52.598;10.928;2022-08-21T02:19:16;13.40;99.90
5881;DHT22;2966;52.598;10.928;2022-08-21T02:21:43;13.30;99.90
5881;DHT22;2966;52.598;10.928;2022-08-21T02:24:11;13.20;99.90
5881;DHT22;2966;52.598;10.928;2022-08-21T02:26:38;13.20;99.90
5881;DHT22;2966;52.598;10.928;2022-08-21T02:29:05;13.20;99.90
5881;DHT22;2966;52.598;10.928;2022-08-21T02:31:33;13.10;99.90
5881;DHT22;2966;52.598;10.928;2022-08-21T02:34:03;13.10;99.90
5881;DHT22;2966;52.598;10.928;2022-08-21T02:36:30;13.10;99.90
5881;DHT22;2966;52.598;10.928;2022-08-21T02:38:57;13.10;99.90
5881;DHT22;2966;52.598;10.928;2022-08-21T02:41:25;13.00;99.90
5881;DHT22;2966;52.598;10.928;2022-08-21T02:43:54;13.00;99.90
5881;DHT22;2966;52.598;10.928;2022-08-21T02:46:21;12.90;99.90
5881;DHT22;2966;52.598;10.928;2022-08-21T02:48:50;12.90;99.90
5881;DHT22;2966;52.598;10.928;2022-08-21T02:51:20;12.90;99.90
5881;DHT22;2966;52.598;10.928;2022-08-21T02:53:48;12.90;99.90
5881;DHT22;2966;52.598;10.928;2022-08-21T02:56:17;12.90;99.90
5881;DHT22;2966;52.598;10.928;2022-08-21T02:58:47;12.80;99.90
5881;DHT22;2966;52.598;10.928;2022-08-21T03:01:14;12.90;99.90
5881;DHT22;2966;52.598;10.928;2022-08-21T03:03:43;12.80;99.90
5881;DHT22;2966;52.598;10.928;2022-08-21T03:06:14;12.70;99.90
5881;DHT22;2966;52.598;10.928;2022-08-21T03:08:41;12.70;99.90
5881;DHT22;2966;52.598;10.928;2022-08-21T03:11:11;12.70;99.90
5881;DHT22;2966;52.598;10.928;2022-08-21T03:13:37;12.70;99.90
5881;DHT22;2966;52.598;10.928;2022-08-21T03:16:05;12.70;99.90
5881;DHT22;2966;52.598;10.928;2022-08-21T03:18:32;12.70;99.90
5881;DHT22;2966;52.598;10.928;2022-08-21T03:20:59;12.60;99.90
5881;DHT22;2966;52.598;10.928;2022-08-21T03:23:27;12.60;99.90
5881;DHT22;2966;52.598;10.928;2022-08-21T03:25:56;12.70;99.90
5881;DHT22;2966;52.598;10.928;2022-08-21T03:28:23;12.60;99.90
5881;DHT22;2966;52.598;10.928;2022-08-21T03:30:51;12.60;99.90
5881;DHT22;2966;52.598;10.928;2022-08-21T03:33:19;12.60;99.90
5881;DHT22;2966;52.598;10.928;2022-08-21T03:35:51;12.50;99.90
5881;DHT22;2966;52.598;10.928;2022-08-21T03:38:20;12.50;99.90
5881;DHT22;2966;52.598;10.928;2022-08-21T03:40:48;12.40;99.90
5881;DHT22;2966;52.598;10.928;2022-08-21T03:43:15;12.40;99.90
5881;DHT22;2966;52.598;10.928;2022-08-21T03:45:42;12.30;99.90
5881;DHT22;2966;52.598;10.928;2022-08-21T03:48:09;12.20;99.90
5881;DHT22;2966;52.598;10.928;2022-08-21T03:50:38;12.20;99.90
5881;DHT22;2966;52.598;10.928;2022-08-21T03:53:05;12.20;99.90
5881;DHT22;2966;52.598;10.928;2022-08-21T03:55:32;12.20;99.90
5881;DHT22;2966;52.598;10.928;2022-08-21T03:58:03;12.20;99.90
5881;DHT22;2966;52.598;10.928;2022-08-21T04:00:30;12.10;99.90
5881;DHT22;2966;52.598;10.928;2022-08-21T04:02:57;12.10;99.90
5881;DHT22;2966;52.598;10.928;2022-08-21T04:05:26;12.00;99.90
5881;DHT22;2966;52.598;10.928;2022-08-21T04:07:57;12.00;99.90
5881;DHT22;2966;52.598;10.928;2022-08-21T04:10:25;12.00;99.90
5881;DHT22;2966;52.598;10.928;2022-08-21T04:12:56;12.00;99.90
5881;DHT22;2966;52.598;10.928;2022-08-21T04:15:26;12.00;99.90
5881;DHT22;2966;52.598;10.928;2022-08-21T04:17:53;12.10;99.90
5881;DHT22;2966;52.598;10.928;2022-08-21T04:20:21;12.10;99.90
5881;DHT22;2966;52.598;10.928;2022-08-21T04:22:48;12.00;99.90
5881;DHT22;2966;52.598;10.928;2022-08-21T04:25:16;12.00;99.90
5881;DHT22;2966;52.598;10.928;2022-08-21T04:27:44;12.00;99.90
5881;DHT22;2966;52.598;10.928;2022-08-21T04:30:13;11.90;99.90
5881;DHT22;2966;52.598;10.928;2022-08-21T04:32:43;11.80;99.90
5881;DHT22;2966;52.598;10.928;2022-08-21T04:35:11;11.80;99.90
5881;DHT22;2966;52.598;10.928;2022-08-21T04:37:39;11.90;99.90
5881;DHT22;2966;52.598;10.928;2022-08-21T04:40:07;11.80;99.90
5881;DHT22;2966;52.598;10.928;2022-08-21T04:42:41;11.80;99.90
5881;DHT22;2966;52.598;10.928;2022-08-21T04:45:09;11.80;99.90
5881;DHT22;2966;52.598;10.928;2022-08-21T04:47:36;11.80;99.90
5881;DHT22;2966;52.598;10.928;2022-08-21T04:50:05;11.80;99.90
5881;DHT22;2966;52.598;10.928;2022-08-21T04:52:32;11.90;99.90
5881;DHT22;2966;52.598;10.928;2022-08-21T04:55:01;11.80;99.90
5881;DHT22;2966;52.598;10.928;2022-08-21T04:57:27;11.80;99.90
5881;DHT22;2966;52.598;10.928;2022-08-21T04:59:54;11.90;99.90
5881;DHT22;2966;52.598;10.928;2022-08-21T05:02:21;12.00;99.90
5881;DHT22;2966;52.598;10.928;2022-08-21T05:04:51;12.00;99.90
5881;DHT22;2966;52.598;10.928;2022-08-21T05:07:22;12.00;99.90
5881;DHT22;2966;52.598;10.928;2022-08-21T05:09:50;12.10;99.90
5881;DHT22;2966;52.598;10.928;2022-08-21T05:12:17;12.20;99.90
5881;DHT22;2966;52.598;10.928;2022-08-21T05:14:46;12.30;99.90
5881;DHT22;2966;52.598;10.928;2022-08-21T05:17:13;12.40;99.90
5881;DHT22;2966;52.598;10.928;2022-08-21T05:19:40;12.50;99.90
5881;DHT22;2966;52.598;10.928;2022-08-21T05:22:06;12.60;99.90
5881;DHT22;2966;52.598;10.928;2022-08-21T05:24:35;12.60;99.90
5881;DHT22;2966;52.598;10.928;2022-08-21T05:27:03;12.70;99.90
5881;DHT22;2966;52.598;10.928;2022-08-21T05:29:32;12.80;99.90
5881;DHT22;2966;52.598;10.928;2022-08-21T05:31:59;12.90;99.90
5881;DHT22;2966;52.598;10.928;2022-08-21T05:34:26;13.10;99.90
5881;DHT22;2966;52.598;10.928;2022-08-21T05:36:53;13.20;99.90
5881;DHT22;2966;52.598;10.928;2022-08-21T05:39:19;13.40;99.90
5881;DHT22;2966;52.598;10.928;2022-08-21T05:41:47;13.50;99.90
5881;DHT22;2966;52.598;10.928;2022-08-21T05:44:14;13.70;99.90
5881;DHT22;2966;52.598;10.928;2022-08-21T05:46:41;13.90;99.90
5881;DHT22;2966;52.598;10.928;2022-08-21T05:49:08;14.10;99.90
5881;DHT22;2966;52.598;10.928;2022-08-21T05:51:34;14.30;99.90
5881;DHT22;2966;52.598;10.928;2022-08-21T05:54:01;14.40;99.90
5881;DHT22;2966;52.598;10.928;2022-08-21T05:56:28;14.50;99.90
5881;DHT22;2966;52.598;10.928;2022-08-21T05:58:56;14.60;99.90
5881;DHT22;2966;52.598;10.928;2022-08-21T06:01:23;14.70;99.90
5881;DHT22;2966;52.598;10.928;2022-08-21T06:03:50;14.80;99.90
5881;DHT22;2966;52.598;10.928;2022-08-21T06:06:16;15.10;99.90
5881;DHT22;2966;52.598;10.928;2022-08-21T06:08:45;15.00;99.90
5881;DHT22;2966;52.598;10.928;2022-08-21T06:11:12;15.20;99.90
5881;DHT22;2966;52.598;10.928;2022-08-21T06:13:39;15.30;99.90
5881;DHT22;2966;52.598;10.928;2022-08-21T06:16:13;15.40;99.90
5881;DHT22;2966;52.598;10.928;2022-08-21T06:18:40;15.60;99.90
5881;DHT22;2966;52.598;10.928;2022-08-21T06:21:07;15.70;99.90
5881;DHT22;2966;52.598;10.928;2022-08-21T06:23:35;15.70;99.90
5881;DHT22;2966;52.598;10.928;2022-08-21T06:26:02;15.70;99.90
5881;DHT22;2966;52.598;10.928;2022-08-21T06:28:31;15.80;99.90
5881;DHT22;2966;52.598;10.928;2022-08-21T06:30:57;15.80;99.90
5881;DHT22;2966;52.598;10.928;2022-08-21T06:33:26;15.90;99.90
5881;DHT22;2966;52.598;10.928;2022-08-21T06:35:52;15.90;99.90
5881;DHT22;2966;52.598;10.928;2022-08-21T06:38:19;16.00;99.90
5881;DHT22;2966;52.598;10.928;2022-08-21T06:40:46;16.10;99.90
5881;DHT22;2966;52.598;10.928;2022-08-21T06:43:14;16.20;99.90
5881;DHT22;2966;52.598;10.928;2022-08-21T06:45:43;16.30;99.90
5881;DHT22;2966;52.598;10.928;2022-08-21T06:48:10;16.50;99.90
5881;DHT22;2966;52.598;10.928;2022-08-21T06:50:38;16.70;99.90
5881;DHT22;2966;52.598;10.928;2022-08-21T06:53:06;16.80;99.90
5881;DHT22;2966;52.598;10.928;2022-08-21T06:55:37;16.90;99.90
5881;DHT22;2966;52.598;10.928;2022-08-21T06:58:04;17.10;99.90
5881;DHT22;2966;52.598;10.928;2022-08-21T07:00:32;17.30;99.90
5881;DHT22;2966;52.598;10.928;2022-08-21T07:03:00;17.40;99.90
5881;DHT22;2966;52.598;10.928;2022-08-21T07:05:27;17.60;99.90
5881;DHT22;2966;52.598;10.928;2022-08-21T07:07:56;17.50;99.90
5881;DHT22;2966;52.598;10.928;2022-08-21T07:10:24;17.70;99.90
5881;DHT22;2966;52.598;10.928;2022-08-21T07:12:51;17.80;99.90
5881;DHT22;2966;52.598;10.928;2022-08-21T07:15:19;17.90;99.90
5881;DHT22;2966;52.598;10.928;2022-08-21T07:17:46;18.00;99.90
5881;DHT22;2966;52.598;10.928;2022-08-21T07:20:13;18.20;99.90
5881;DHT22;2966;52.598;10.928;2022-08-21T07:22:40;18.50;99.90
5881;DHT22;2966;52.598;10.928;2022-08-21T07:25:09;18.50;99.90
5881;DHT22;2966;52.598;10.928;2022-08-21T07:27:36;18.60;99.90
5881;DHT22;2966;52.598;10.928;2022-08-21T07:30:03;18.50;99.90
5881;DHT22;2966;52.598;10.928;2022-08-21T07:32:30;18.60;99.90
5881;DHT22;2966;52.598;10.928;2022-08-21T07:34:57;18.60;99.90
5881;DHT22;2966;52.598;10.928;2022-08-21T07:37:24;18.70;99.90
5881;DHT22;2966;52.598;10.928;2022-08-21T07:39:50;18.90;99.90
5881;DHT22;2966;52.598;10.928;2022-08-21T07:42:18;19.10;99.90
5881;DHT22;2966;52.598;10.928;2022-08-21T07:44:45;19.40;99.90
5881;DHT22;2966;52.598;10.928;2022-08-21T07:47:12;19.60;99.90
5881;DHT22;2966;52.598;10.928;2022-08-21T07:49:38;19.80;99.90
5881;DHT22;2966;52.598;10.928;2022-08-21T07:52:05;20.10;99.90
5881;DHT22;2966;52.598;10.928;2022-08-21T07:54:32;20.10;99.90
5881;DHT22;2966;52.598;10.928;2022-08-21T07:56:59;20.40;99.90
5881;DHT22;2966;52.598;10.928;2022-08-21T07:59:27;20.40;99.90
5881;DHT22;2966;52.598;10.928;2022-08-21T08:01:54;20.60;99.90
5881;DHT22;2966;52.598;10.928;2022-08-21T08:04:21;20.70;99.90
5881;DHT22;2966;52.598;10.928;2022-08-21T08:06:48;20.80;99.90
5881;DHT22;2966;52.598;10.928;2022-08-21T08:09:14;20.80;99.90
5881;DHT22;2966;52.598;10.928;2022-08-21T08:11:42;20.90;99.90
5881;DHT22;2966;52.598;10.928;2022-08-21T08:14:09;21.10;99.90
5881;DHT22;2966;52.598;10.928;2022-08-21T08:16:38;21.30;99.90
5881;DHT22;2966;52.598;10.928;2022-08-21T08:19:04;21.40;99.90
5881;DHT22;2966;52.598;10.928;2022-08-21T08:21:31;21.50;99.90
5881;DHT22;2966;52.598;10.928;2022-08-21T08:23:59;21.60;99.90
5881;DHT22;2966;52.598;10.928;2022-08-21T08:26:25;21.30;99.90
5881;DHT22;2966;52.598;10.928;2022-08-21T08:28:52;21.40;99.90
5881;DHT22;2966;52.598;10.928;2022-08-21T08:31:18;21.70;99.90
5881;DHT22;2966;52.598;10.928;2022-08-21T08:33:46;21.70;99.90
5881;DHT22;2966;52.598;10.928;2022-08-21T08:36:14;21.60;99.90
5881;DHT22;2966;52.598;10.928;2022-08-21T08:38:41;21.30;99.90
5881;DHT22;2966;52.598;10.928;2022-08-21T08:41:11;21.20;99.90
5881;DHT22;2966;52.598;10.928;2022-08-21T08:43:40;20.90;99.90
5881;DHT22;2966;52.598;10.928;2022-08-21T08:46:12;21.10;99.90
5881;DHT22;2966;52.598;10.928;2022-08-21T08:48:47;21.30;99.90
5881;DHT22;2966;52.598;10.928;2022-08-21T08:51:22;21.30;99.90
5881;DHT22;2966;52.598;10.928;2022-08-21T08:53:51;21.60;99.90
5881;DHT22;2966;52.598;10.928;2022-08-21T08:56:26;21.70;99.90
5881;DHT22;2966;52.598;10.928;2022-08-21T08:58:57;21.70;99.90
5881;DHT22;2966;52.598;10.928;2022-08-21T09:01:26;21.90;99.90
5881;DHT22;2966;52.598;10.928;2022-08-21T09:03:54;22.00;99.90
5881;DHT22;2966;52.598;10.928;2022-08-21T09:06:35;22.10;99.90
5881;DHT22;2966;52.598;10.928;2022-08-21T09:09:12;22.10;99.90
5881;DHT22;2966;52.598;10.928;2022-08-21T09:11:48;22.20;99.90
5881;DHT22;2966;52.598;10.928;2022-08-21T09:14:26;22.20;99.90
5881;DHT22;2966;52.598;10.928;2022-08-21T09:17:01;22.10;99.90
5881;DHT22;2966;52.598;10.928;2022-08-21T09:19:43;22.10;99.90
5881;DHT22;2966;52.598;10.928;2022-08-21T09:22:19;22.00;99.90
5881;DHT22;2966;52.598;10.928;2022-08-21T09:24:58;22.00;99.90
5881;DHT22;2966;52.598;10.928;2022-08-21T09:27:26;21.90;99.90
5881;DHT22;2966;52.598;10.928;2022-08-21T09:29:54;21.80;99.90
5881;DHT22;2966;52.598;10.928;2022-08-21T09:32:24;21.80;99.90
5881;DHT22;2966;52.598;10.928;2022-08-21T09:34:58;21.90;99.90
5881;DHT22;2966;52.598;10.928;2022-08-21T09:37:28;22.10;99.90
5881;DHT22;2966;52.598;10.928;2022-08-21T09:39:56;22.30;99.90
5881;DHT22;2966;52.598;10.928;2022-08-21T09:42:25;22.40;99.90
5881;DHT22;2966;52.598;10.928;2022-08-21T09:45:09;22.50;99.90
5881;DHT22;2966;52.598;10.928;2022-08-21T09:47:36;22.50;99.90
5881;DHT22;2966;52.598;10.928;2022-08-21T09:50:20;22.50;99.90
5881;DHT22;2966;52.598;10.928;2022-08-21T09:52:50;22.70;99.90
5881;DHT22;2966;52.598;10.928;2022-08-21T09:55:32;22.80;99.90
5881;DHT22;2966;52.598;10.928;2022-08-21T09:58:18;22.80;99.90
5881;DHT22;2966;52.598;10.928;2022-08-21T10:00:45;22.70;99.90
5881;DHT22;2966;52.598;10.928;2022-08-21T10:03:15;22.70;99.90
5881;DHT22;2966;52.598;10.928;2022-08-21T10:05:53;22.90;99.90
5881;DHT22;2966;52.598;10.928;2022-08-21T10:08:22;22.90;99.90
5881;DHT22;2966;52.598;10.928;2022-08-21T10:10:52;22.70;99.90
5881;DHT22;2966;52.598;10.928;2022-08-21T10:13:25;22.70;99.90
5881;DHT22;2966;52.598;10.928;2022-08-21T10:16:03;22.70;99.90
5881;DHT22;2966;52.598;10.928;2022-08-21T10:18:37;22.70;99.90
5881;DHT22;2966;52.598;10.928;2022-08-21T10:21:13;22.70;99.90
5881;DHT22;2966;52.598;10.928;2022-08-21T10:23:51;22.90;99.90
5881;DHT22;2966;52.598;10.928;2022-08-21T10:26:29;23.00;99.90
5881;DHT22;2966;52.598;10.928;2022-08-21T10:29:04;23.20;99.90
5881;DHT22;2966;52.598;10.928;2022-08-21T10:31:42;23.30;99.90
5881;DHT22;2966;52.598;10.928;2022-08-21T10:34:23;23.70;99.90
5881;DHT22;2966;52.598;10.928;2022-08-21T10:37:01;23.70;99.90
5881;DHT22;2966;52.598;10.928;2022-08-21T10:39:35;23.60;99.90
5881;DHT22;2966;52.598;10.928;2022-08-21T10:45:06;23.00;99.90
5881;DHT22;2966;52.598;10.928;2022-08-21T10:47:41;22.80;99.90
5881;DHT22;2966;52.598;10.928;2022-08-21T10:50:13;22.50;99.90
5881;DHT22;2966;52.598;10.928;2022-08-21T10:53:06;22.70;99.90
5881;DHT22;2966;52.598;10.928;2022-08-21T10:55:38;22.70;99.90
5881;DHT22;2966;52.598;10.928;2022-08-21T10:58:10;23.00;99.90
5881;DHT22;2966;52.598;10.928;2022-08-21T11:00:43;23.20;99.90
5881;DHT22;2966;52.598;10.928;2022-08-21T11:03:16;23.60;99.90
5881;DHT22;2966;52.598;10.928;2022-08-21T11:05:48;23.70;99.90
5881;DHT22;2966;52.598;10.928;2022-08-21T11:08:21;23.50;99.90
5881;DHT22;2966;52.598;10.928;2022-08-21T11:10:52;23.20;99.90
5881;DHT22;2966;52.598;10.928;2022-08-21T11:13:26;23.10;99.90
5881;DHT22;2966;52.598;10.928;2022-08-21T11:16:01;23.30;99.90
5881;DHT22;2966;52.598;10.928;2022-08-21T11:18:34;23.60;99.90
5881;DHT22;2966;52.598;10.928;2022-08-21T11:21:13;24.00;99.90
5881;DHT22;2966;52.598;10.928;2022-08-21T11:23:46;24.30;99.90
5881;DHT22;2966;52.598;10.928;2022-08-21T11:26:28;24.20;99.90
5881;DHT22;2966;52.598;10.928;2022-08-21T11:29:04;24.20;99.90
5881;DHT22;2966;52.598;10.928;2022-08-21T11:31:44;24.30;99.90
5881;DHT22;2966;52.598;10.928;2022-08-21T11:34:23;24.40;99.90
5881;DHT22;2966;52.598;10.928;2022-08-21T11:36:57;24.50;99.90
5881;DHT22;2966;52.598;10.928;2022-08-21T11:39:35;24.60;99.90
5881;DHT22;2966;52.598;10.928;2022-08-21T11:42:12;24.70;99.90
5881;DHT22;2966;52.598;10.928;2022-08-21T11:44:48;24.60;99.90
5881;DHT22;2966;52.598;10.928;2022-08-21T11:47:21;24.80;99.90
5881;DHT22;2966;52.598;10.928;2022-08-21T11:50:02;24.60;99.90
5881;DHT22;2966;52.598;10.928;2022-08-21T11:52:36;24.30;99.90
5881;DHT22;2966;52.598;10.928;2022-08-21T11:55:08;24.10;99.90
5881;DHT22;2966;52.598;10.928;2022-08-21T11:57:42;24.30;99.90
5881;DHT22;2966;52.598;10.928;2022-08-21T12:00:15;24.50;99.90
5881;DHT22;2966;52.598;10.928;2022-08-21T12:02:47;24.60;99.90
5881;DHT22;2966;52.598;10.928;2022-08-21T12:05:26;24.70;99.90
5881;DHT22;2966;52.598;10.928;2022-08-21T12:08:06;24.80;99.90
5881;DHT22;2966;52.598;10.928;2022-08-21T12:10:40;25.00;99.90
5881;DHT22;2966;52.598;10.928;2022-08-21T12:13:11;24.90;99.90
5881;DHT22;2966;52.598;10.928;2022-08-21T12:15:47;24.80;99.90
5881;DHT22;2966;52.598;10.928;2022-08-21T12:18:23;25.00;99.90
5881;DHT22;2966;52.598;10.928;2022-08-21T12:21:02;25.10;99.90
5881;DHT22;2966;52.598;10.928;2022-08-21T12:23:31;25.20;99.90
5881;DHT22;2966;52.598;10.928;2022-08-21T12:26:09;25.30;99.90
5881;DHT22;2966;52.598;10.928;2022-08-21T12:28:37;25.20;99.90
5881;DHT22;2966;52.598;10.928;2022-08-21T12:31:17;25.20;99.90
5881;DHT22;2966;52.598;10.928;2022-08-21T12:33:51;25.20;99.90
5881;DHT22;2966;52.598;10.928;2022-08-21T12:36:21;24.80;99.90
5881;DHT22;2966;52.598;10.928;2022-08-21T12:38:52;24.70;99.90
5881;DHT22;2966;52.598;10.928;2022-08-21T12:41:26;24.90;99.90
5881;DHT22;2966;52.598;10.928;2022-08-21T12:43:57;25.10;99.90
5881;DHT22;2966;52.598;10.928;2022-08-21T12:46:30;25.20;99.90
5881;DHT22;2966;52.598;10.928;2022-08-21T12:49:01;25.30;99.90
5881;DHT22;2966;52.598;10.928;2022-08-21T12:51:36;25.50;99.90
5881;DHT22;2966;52.598;10.928;2022-08-21T12:54:04;25.80;99.90
5881;DHT22;2966;52.598;10.928;2022-08-21T12:56:35;25.70;99.90
5881;DHT22;2966;52.598;10.928;2022-08-21T12:59:06;25.70;99.90
5881;DHT22;2966;52.598;10.928;2022-08-21T13:01:35;25.60;99.90
5881;DHT22;2966;52.598;10.928;2022-08-21T13:04:09;25.70;99.90
5881;DHT22;2966;52.598;10.928;2022-08-21T13:06:39;25.70;99.90
5881;DHT22;2966;52.598;10.928;2022-08-21T13:09:08;25.90;99.90
5881;DHT22;2966;52.598;10.928;2022-08-21T13:11:38;25.40;99.90
5881;DHT22;2966;52.598;10.928;2022-08-21T13:14:13;24.70;99.90
5881;DHT22;2966;52.598;10.928;2022-08-21T13:16:40;24.40;99.90
5881;DHT22;2966;52.598;10.928;2022-08-21T13:19:11;24.10;99.90
5881;DHT22;2966;52.598;10.928;2022-08-21T13:21:40;24.00;99.90
5881;DHT22;2966;52.598;10.928;2022-08-21T13:24:12;23.80;99.90
5881;DHT22;2966;52.598;10.928;2022-08-21T13:26:41;24.30;99.90
5881;DHT22;2966;52.598;10.928;2022-08-21T13:29:10;24.40;99.90
5881;DHT22;2966;52.598;10.928;2022-08-21T13:31:38;24.10;99.90
5881;DHT22;2966;52.598;10.928;2022-08-21T13:34:06;24.00;99.90
5881;DHT22;2966;52.598;10.928;2022-08-21T13:36:36;24.00;99.90
5881;DHT22;2966;52.598;10.928;2022-08-21T13:39:03;24.40;99.90
5881;DHT22;2966;52.598;10.928;2022-08-21T13:41:33;24.80;99.90
5881;DHT22;2966;52.598;10.928;2022-08-21T13:44:04;25.10;99.90
5881;DHT22;2966;52.598;10.928;2022-08-21T13:46:34;25.50;99.90
5881;DHT22;2966;52.598;10.928;2022-08-21T13:49:03;25.90;99.90
5881;DHT22;2966;52.598;10.928;2022-08-21T13:51:31;25.90;99.90
5881;DHT22;2966;52.598;10.928;2022-08-21T13:53:58;25.60;99.90
5881;DHT22;2966;52.598;10.928;2022-08-21T13:56:28;25.40;99.90
5881;DHT22;2966;52.598;10.928;2022-08-21T13:58:57;25.50;99.90
5881;DHT22;2966;52.598;10.928;2022-08-21T14:01:28;25.60;99.90
5881;DHT22;2966;52.598;10.928;2022-08-21T14:03:59;25.60;99.90
5881;DHT22;2966;52.598;10.928;2022-08-21T14:06:32;25.70;99.90
5881;DHT22;2966;52.598;10.928;2022-08-21T14:09:02;25.70;99.90
5881;DHT22;2966;52.598;10.928;2022-08-21T14:11:34;25.80;99.90
5881;DHT22;2966;52.598;10.928;2022-08-21T14:14:03;25.60;99.90
5881;DHT22;2966;52.598;10.928;2022-08-21T14:16:45;25.70;99.90
5881;DHT22;2966;52.598;10.928;2022-08-21T14:19:20;25.70;99.90
5881;DHT22;2966;52.598;10.928;2022-08-21T14:21:48;25.90;99.90
5881;DHT22;2966;52.598;10.928;2022-08-21T14:24:26;25.90;99.90
5881;DHT22;2966;52.598;10.928;2022-08-21T14:26:58;25.90;99.90
5881;DHT22;2966;52.598;10.928;2022-08-21T14:29:28;26.10;99.90
5881;DHT22;2966;52.598;10.928;2022-08-21T14:32:09;26.30;99.90
5881;DHT22;2966;52.598;10.928;2022-08-21T14:34:36;26.40;99.90
5881;DHT22;2966;52.598;10.928;2022-08-21T14:37:03;26.60;99.90
5881;DHT22;2966;52.598;10.928;2022-08-21T14:39:30;26.80;99.90
5881;DHT22;2966;52.598;10.928;2022-08-21T14:41:57;26.50;99.90
5881;DHT22;2966;52.598;10.928;2022-08-21T14:44:24;26.50;99.90
5881;DHT22;2966;52.598;10.928;2022-08-21T14:46:51;25.90;99.90
5881;DHT22;2966;52.598;10.928;2022-08-21T14:49:19;25.20;99.90
5881;DHT22;2966;52.598;10.928;2022-08-21T14:51:45;25.10;99.90
5881;DHT22;2966;52.598;10.928;2022-08-21T14:54:12;25.00;99.90
5881;DHT22;2966;52.598;10.928;2022-08-21T14:56:39;24.80;99.90
5881;DHT22;2966;52.598;10.928;2022-08-21T14:59:07;24.60;99.90
5881;DHT22;2966;52.598;10.928;2022-08-21T15:01:35;24.10;99.90
5881;DHT22;2966;52.598;10.928;2022-08-21T15:04:02;23.80;99.90
5881;DHT22;2966;52.598;10.928;2022-08-21T15:06:31;23.80;99.90
5881;DHT22;2966;52.598;10.928;2022-08-21T15:08:58;24.00;99.90
5881;DHT22;2966;52.598;10.928;2022-08-21T15:11:25;24.40;99.90
5881;DHT22;2966;52.598;10.928;2022-08-21T15:13:55;24.50;99.90
5881;DHT22;2966;52.598;10.928;2022-08-21T15:16:22;24.30;99.90
5881;DHT22;2966;52.598;10.928;2022-08-21T15:18:49;24.10;99.90
5881;DHT22;2966;52.598;10.928;2022-08-21T15:21:16;23.80;99.90
5881;DHT22;2966;52.598;10.928;2022-08-21T15:23:44;23.60;99.90
5881;DHT22;2966;52.598;10.928;2022-08-21T15:26:11;23.70;99.90
5881;DHT22;2966;52.598;10.928;2022-08-21T15:28:38;23.70;99.90
5881;DHT22;2966;52.598;10.928;2022-08-21T15:31:05;23.80;99.90
5881;DHT22;2966;52.598;10.928;2022-08-21T15:33:32;24.00;99.90
5881;DHT22;2966;52.598;10.928;2022-08-21T15:36:02;24.00;99.90
5881;DHT22;2966;52.598;10.928;2022-08-21T15:38:32;24.30;99.90
5881;DHT22;2966;52.598;10.928;2022-08-21T15:41:01;24.30;99.90
5881;DHT22;2966;52.598;10.928;2022-08-21T15:43:41;24.50;99.90
5881;DHT22;2966;52.598;10.928;2022-08-21T15:46:11;24.70;99.90
5881;DHT22;2966;52.598;10.928;2022-08-21T15:48:38;24.80;99.90
5881;DHT22;2966;52.598;10.928;2022-08-21T15:51:05;24.90;99.90
5881;DHT22;2966;52.598;10.928;2022-08-21T15:53:32;24.90;99.90
5881;DHT22;2966;52.598;10.928;2022-08-21T15:56:05;24.90;99.90
5881;DHT22;2966;52.598;10.928;2022-08-21T15:58:35;24.90;99.90
5881;DHT22;2966;52.598;10.928;2022-08-21T16:01:02;24.90;99.90
5881;DHT22;2966;52.598;10.928;2022-08-21T16:03:29;24.90;99.90